Kingstowne, Virginia
Current Conditions -  °F | °C
As of 12:58 PM on Friday 21 Nov 2014 (Local Time) from KDAA Reporting Station
Clear Clear  
Wind Chill: 30°   Ceiling: Unl
Heat Index: 37°   Visibility: 10mi
Dew Point:   Wind: 9mph
Humidity: 28%   Direction: 320°NW
Pressure: 30.46"   Gusts: 25mph
Location:  38.755°N, 77.1496°W
Report Text: KDAA 211758Z AUTO 32008G22KT 290V350 10SM CLR 03/M14 A3046 RMK AO2 SLP319 T00261142 10026 21021 50003
Loading
Personal Weather Stations






























Interactive Weather Map New forecast layout! Learn more

10-Day Weather Forecast

Advertisements
Track Severe Weather on mobile